sensor_id;sensor_type;location;lat;lon;timestamp;temperature;humidity
75821;DHT22;64454;51.984;9.838;2022-12-18T00:02:22;-3.50;1.00
75821;DHT22;64454;51.984;9.838;2022-12-18T00:04:49;-3.60;1.00
75821;DHT22;64454;51.984;9.838;2022-12-18T00:07:16;-3.60;1.00
75821;DHT22;64454;51.984;9.838;2022-12-18T00:09:43;-3.60;1.00
75821;DHT22;64454;51.984;9.838;2022-12-18T00:12:11;-3.60;1.00
75821;DHT22;64454;51.984;9.838;2022-12-18T00:14:38;-3.50;1.00
75821;DHT22;64454;51.984;9.838;2022-12-18T00:17:05;-3.60;1.00
75821;DHT22;64454;51.984;9.838;2022-12-18T00:19:32;-3.60;1.00
75821;DHT22;64454;51.984;9.838;2022-12-18T00:21:59;-3.60;1.00
75821;DHT22;64454;51.984;9.838;2022-12-18T00:24:26;-3.60;1.00
75821;DHT22;64454;51.984;9.838;2022-12-18T00:26:53;-3.60;1.00
75821;DHT22;64454;51.984;9.838;2022-12-18T00:29:21;-3.60;1.00
75821;DHT22;64454;51.984;9.838;2022-12-18T00:31:48;-3.60;1.00
75821;DHT22;64454;51.984;9.838;2022-12-18T00:34:15;-3.60;1.00
75821;DHT22;64454;51.984;9.838;2022-12-18T00:36:42;-3.60;1.00
75821;DHT22;64454;51.984;9.838;2022-12-18T00:39:10;-3.60;1.00
75821;DHT22;64454;51.984;9.838;2022-12-18T00:41:37;-3.60;1.00
75821;DHT22;64454;51.984;9.838;2022-12-18T00:44:23;-3.60;1.00
75821;DHT22;64454;51.984;9.838;2022-12-18T00:46:50;-3.50;1.00
75821;DHT22;64454;51.984;9.838;2022-12-18T00:49:18;-3.50;1.00
75821;DHT22;64454;51.984;9.838;2022-12-18T00:51:46;-3.70;1.00
75821;DHT22;64454;51.984;9.838;2022-12-18T00:54:14;-3.70;1.00
75821;DHT22;64454;51.984;9.838;2022-12-18T00:56:41;-3.70;1.00
75821;DHT22;64454;51.984;9.838;2022-12-18T00:59:08;-3.70;1.00
75821;DHT22;64454;51.984;9.838;2022-12-18T01:01:36;-3.70;1.00
75821;DHT22;64454;51.984;9.838;2022-12-18T01:04:04;-3.70;1.00
75821;DHT22;64454;51.984;9.838;2022-12-18T01:06:32;-3.70;1.00
75821;DHT22;64454;51.984;9.838;2022-12-18T01:08:58;-3.70;1.00
75821;DHT22;64454;51.984;9.838;2022-12-18T01:11:26;-3.80;1.00
75821;DHT22;64454;51.984;9.838;2022-12-18T01:13:53;-3.70;1.00
75821;DHT22;64454;51.984;9.838;2022-12-18T01:16:20;-3.70;1.00
75821;DHT22;64454;51.984;9.838;2022-12-18T01:18:51;-3.70;1.00
75821;DHT22;64454;51.984;9.838;2022-12-18T01:21:21;-3.80;1.00
75821;DHT22;64454;51.984;9.838;2022-12-18T01:23:51;-3.80;1.00
75821;DHT22;64454;51.984;9.838;2022-12-18T01:26:20;-3.80;1.00
75821;DHT22;64454;51.984;9.838;2022-12-18T01:28:47;-3.90;1.00
75821;DHT22;64454;51.984;9.838;2022-12-18T01:31:19;-3.90;1.00
75821;DHT22;64454;51.984;9.838;2022-12-18T01:33:48;-3.90;1.00
75821;DHT22;64454;51.984;9.838;2022-12-18T01:36:18;-3.90;1.00
75821;DHT22;64454;51.984;9.838;2022-12-18T01:38:47;-4.00;1.00
75821;DHT22;64454;51.984;9.838;2022-12-18T01:41:16;-4.00;1.00
75821;DHT22;64454;51.984;9.838;2022-12-18T01:43:48;-4.00;1.00
75821;DHT22;64454;51.984;9.838;2022-12-18T01:46:19;-4.00;1.00
75821;DHT22;64454;51.984;9.838;2022-12-18T01:48:50;-4.10;1.00
75821;DHT22;64454;51.984;9.838;2022-12-18T01:51:19;-4.10;1.00
75821;DHT22;64454;51.984;9.838;2022-12-18T01:53:47;-4.10;1.00
75821;DHT22;64454;51.984;9.838;2022-12-18T01:56:17;-4.30;1.00
75821;DHT22;64454;51.984;9.838;2022-12-18T01:58:51;-4.30;1.00
75821;DHT22;64454;51.984;9.838;2022-12-18T02:01:22;-4.30;1.00
75821;DHT22;64454;51.984;9.838;2022-12-18T02:03:51;-4.30;1.00
75821;DHT22;64454;51.984;9.838;2022-12-18T02:06:22;-4.30;1.00
75821;DHT22;64454;51.984;9.838;2022-12-18T02:09:02;-4.30;1.00
75821;DHT22;64454;51.984;9.838;2022-12-18T02:11:44;-4.30;1.00
75821;DHT22;64454;51.984;9.838;2022-12-18T02:14:26;-4.30;1.00
75821;DHT22;64454;51.984;9.838;2022-12-18T02:17:01;-4.20;1.00
75821;DHT22;64454;51.984;9.838;2022-12-18T02:19:55;-4.30;1.00
75821;DHT22;64454;51.984;9.838;2022-12-18T02:22:40;-4.30;1.00
75821;DHT22;64454;51.984;9.838;2022-12-18T02:25:28;-4.30;1.00
75821;DHT22;64454;51.984;9.838;2022-12-18T02:28:20;-4.20;1.00
75821;DHT22;64454;51.984;9.838;2022-12-18T02:30:50;-4.20;1.00
75821;DHT22;64454;51.984;9.838;2022-12-18T02:33:21;-4.20;1.00
75821;DHT22;64454;51.984;9.838;2022-12-18T02:35:54;-4.20;1.00
75821;DHT22;64454;51.984;9.838;2022-12-18T02:38:25;-4.20;1.00
75821;DHT22;64454;51.984;9.838;2022-12-18T02:40:53;-4.20;1.00
75821;DHT22;64454;51.984;9.838;2022-12-18T02:43:22;-4.20;1.00
75821;DHT22;64454;51.984;9.838;2022-12-18T02:45:50;-4.20;1.00
75821;DHT22;64454;51.984;9.838;2022-12-18T02:48:24;-4.20;1.00
75821;DHT22;64454;51.984;9.838;2022-12-18T02:50:59;-4.20;1.00
75821;DHT22;64454;51.984;9.838;2022-12-18T02:53:35;-4.20;1.00
75821;DHT22;64454;51.984;9.838;2022-12-18T02:56:13;-4.20;1.00
75821;DHT22;64454;51.984;9.838;2022-12-18T02:58:53;-4.20;1.00
75821;DHT22;64454;51.984;9.838;2022-12-18T03:01:32;-4.20;1.00
75821;DHT22;64454;51.984;9.838;2022-12-18T03:04:10;-4.20;1.00
75821;DHT22;64454;51.984;9.838;2022-12-18T03:06:44;-4.30;1.00
75821;DHT22;64454;51.984;9.838;2022-12-18T03:09:18;-4.30;1.00
75821;DHT22;64454;51.984;9.838;2022-12-18T03:11:54;-4.30;1.00
75821;DHT22;64454;51.984;9.838;2022-12-18T03:14:44;-4.20;1.00
75821;DHT22;64454;51.984;9.838;2022-12-18T03:17:17;-4.30;1.00
75821;DHT22;64454;51.984;9.838;2022-12-18T03:19:49;-4.20;1.00
75821;DHT22;64454;51.984;9.838;2022-12-18T03:22:21;-4.30;1.00
75821;DHT22;64454;51.984;9.838;2022-12-18T03:24:51;-4.30;1.00
75821;DHT22;64454;51.984;9.838;2022-12-18T03:27:21;-4.40;1.00
75821;DHT22;64454;51.984;9.838;2022-12-18T03:29:56;-4.30;1.00
75821;DHT22;64454;51.984;9.838;2022-12-18T03:32:35;-4.40;1.00
75821;DHT22;64454;51.984;9.838;2022-12-18T03:35:08;-4.50;1.00
75821;DHT22;64454;51.984;9.838;2022-12-18T03:37:38;-4.40;1.00
75821;DHT22;64454;51.984;9.838;2022-12-18T03:40:06;-4.40;1.00
75821;DHT22;64454;51.984;9.838;2022-12-18T03:42:39;-4.30;1.00
75821;DHT22;64454;51.984;9.838;2022-12-18T03:45:20;-4.20;1.00
75821;DHT22;64454;51.984;9.838;2022-12-18T03:48:04;-4.10;1.00
75821;DHT22;64454;51.984;9.838;2022-12-18T03:50:39;-4.10;1.00
75821;DHT22;64454;51.984;9.838;2022-12-18T03:53:22;-4.10;1.00
75821;DHT22;64454;51.984;9.838;2022-12-18T03:55:55;-4.10;1.00
75821;DHT22;64454;51.984;9.838;2022-12-18T03:58:25;-4.20;1.00
75821;DHT22;64454;51.984;9.838;2022-12-18T04:00:57;-4.10;1.00
75821;DHT22;64454;51.984;9.838;2022-12-18T04:03:29;-4.10;1.00
75821;DHT22;64454;51.984;9.838;2022-12-18T04:05:59;-4.10;1.00
75821;DHT22;64454;51.984;9.838;2022-12-18T04:08:27;-4.10;1.00
75821;DHT22;64454;51.984;9.838;2022-12-18T04:10:55;-4.00;1.00
75821;DHT22;64454;51.984;9.838;2022-12-18T04:13:23;-4.00;1.00
75821;DHT22;64454;51.984;9.838;2022-12-18T04:15:51;-3.90;1.00
75821;DHT22;64454;51.984;9.838;2022-12-18T04:18:19;-3.90;1.00
75821;DHT22;64454;51.984;9.838;2022-12-18T04:20:46;-4.00;1.00
75821;DHT22;64454;51.984;9.838;2022-12-18T04:23:13;-4.10;1.00
75821;DHT22;64454;51.984;9.838;2022-12-18T04:25:40;-4.40;1.00
75821;DHT22;64454;51.984;9.838;2022-12-18T04:28:07;-4.40;1.00
75821;DHT22;64454;51.984;9.838;2022-12-18T04:30:34;-4.40;1.00
75821;DHT22;64454;51.984;9.838;2022-12-18T04:33:01;-4.30;1.00
75821;DHT22;64454;51.984;9.838;2022-12-18T04:35:29;-4.40;1.00
75821;DHT22;64454;51.984;9.838;2022-12-18T04:37:56;-4.40;1.00
75821;DHT22;64454;51.984;9.838;2022-12-18T04:40:23;-4.40;1.00
75821;DHT22;64454;51.984;9.838;2022-12-18T04:42:50;-4.30;1.00
75821;DHT22;64454;51.984;9.838;2022-12-18T04:45:17;-4.30;1.00
75821;DHT22;64454;51.984;9.838;2022-12-18T04:47:44;-4.30;1.00
75821;DHT22;64454;51.984;9.838;2022-12-18T04:50:11;-4.30;1.00
75821;DHT22;64454;51.984;9.838;2022-12-18T04:52:39;-4.30;1.00
75821;DHT22;64454;51.984;9.838;2022-12-18T04:55:07;-4.20;1.00
75821;DHT22;64454;51.984;9.838;2022-12-18T04:57:34;-4.20;1.00
75821;DHT22;64454;51.984;9.838;2022-12-18T05:00:01;-4.30;1.00
75821;DHT22;64454;51.984;9.838;2022-12-18T05:02:28;-4.30;1.00
75821;DHT22;64454;51.984;9.838;2022-12-18T05:04:55;-4.30;1.00
75821;DHT22;64454;51.984;9.838;2022-12-18T05:07:22;-4.30;1.00
75821;DHT22;64454;51.984;9.838;2022-12-18T05:09:50;-4.30;1.00
75821;DHT22;64454;51.984;9.838;2022-12-18T05:12:17;-4.20;1.00
75821;DHT22;64454;51.984;9.838;2022-12-18T05:14:44;-4.20;1.00
75821;DHT22;64454;51.984;9.838;2022-12-18T05:17:11;-4.20;1.00
75821;DHT22;64454;51.984;9.838;2022-12-18T05:19:38;-4.30;1.00
75821;DHT22;64454;51.984;9.838;2022-12-18T05:22:05;-4.30;1.00
75821;DHT22;64454;51.984;9.838;2022-12-18T05:24:32;-4.20;1.00
75821;DHT22;64454;51.984;9.838;2022-12-18T05:27:00;-4.20;1.00
75821;DHT22;64454;51.984;9.838;2022-12-18T05:29:27;-4.20;1.00
75821;DHT22;64454;51.984;9.838;2022-12-18T05:31:54;-4.10;1.00
75821;DHT22;64454;51.984;9.838;2022-12-18T05:34:21;-4.00;1.00
75821;DHT22;64454;51.984;9.838;2022-12-18T05:36:48;-4.00;1.00
75821;DHT22;64454;51.984;9.838;2022-12-18T05:39:15;-3.90;1.00
75821;DHT22;64454;51.984;9.838;2022-12-18T05:41:42;-4.10;1.00
75821;DHT22;64454;51.984;9.838;2022-12-18T05:44:10;-3.90;1.00
75821;DHT22;64454;51.984;9.838;2022-12-18T05:46:40;-3.80;1.00
75821;DHT22;64454;51.984;9.838;2022-12-18T05:49:07;-3.90;1.00
75821;DHT22;64454;51.984;9.838;2022-12-18T05:51:36;-3.90;1.00
75821;DHT22;64454;51.984;9.838;2022-12-18T05:54:04;-3.90;1.00
75821;DHT22;64454;51.984;9.838;2022-12-18T05:56:31;-3.90;1.00
75821;DHT22;64454;51.984;9.838;2022-12-18T05:58:57;-4.00;1.00
75821;DHT22;64454;51.984;9.838;2022-12-18T06:01:26;-4.10;1.00
75821;DHT22;64454;51.984;9.838;2022-12-18T06:03:53;-4.10;1.00
75821;DHT22;64454;51.984;9.838;2022-12-18T06:06:23;-4.10;1.00
75821;DHT22;64454;51.984;9.838;2022-12-18T06:08:51;-4.00;1.00
75821;DHT22;64454;51.984;9.838;2022-12-18T06:11:20;-4.20;1.00
75821;DHT22;64454;51.984;9.838;2022-12-18T06:13:50;-4.20;1.00
75821;DHT22;64454;51.984;9.838;2022-12-18T06:16:17;-4.20;1.00
75821;DHT22;64454;51.984;9.838;2022-12-18T06:18:46;-4.30;1.00
75821;DHT22;64454;51.984;9.838;2022-12-18T06:21:13;-4.30;1.00
75821;DHT22;64454;51.984;9.838;2022-12-18T06:23:40;-4.30;1.00
75821;DHT22;64454;51.984;9.838;2022-12-18T06:26:08;-4.30;1.00
75821;DHT22;64454;51.984;9.838;2022-12-18T06:28:37;-4.30;1.00
75821;DHT22;64454;51.984;9.838;2022-12-18T06:31:05;-4.40;1.00
75821;DHT22;64454;51.984;9.838;2022-12-18T06:33:33;-4.40;1.00
75821;DHT22;64454;51.984;9.838;2022-12-18T06:36:04;-4.40;1.00
75821;DHT22;64454;51.984;9.838;2022-12-18T06:38:34;-4.40;1.00
75821;DHT22;64454;51.984;9.838;2022-12-18T06:41:06;-4.40;1.00
75821;DHT22;64454;51.984;9.838;2022-12-18T06:43:33;-4.40;1.00
75821;DHT22;64454;51.984;9.838;2022-12-18T06:46:01;-4.50;1.00
75821;DHT22;64454;51.984;9.838;2022-12-18T06:48:29;-4.50;1.00
75821;DHT22;64454;51.984;9.838;2022-12-18T06:50:57;-4.50;1.00
75821;DHT22;64454;51.984;9.838;2022-12-18T06:53:26;-4.50;1.00
75821;DHT22;64454;51.984;9.838;2022-12-18T06:55:58;-4.50;1.00
75821;DHT22;64454;51.984;9.838;2022-12-18T06:58:27;-4.50;1.00
75821;DHT22;64454;51.984;9.838;2022-12-18T07:00:56;-4.50;1.00
75821;DHT22;64454;51.984;9.838;2022-12-18T07:03:26;-4.50;1.00
75821;DHT22;64454;51.984;9.838;2022-12-18T07:05:53;-4.60;1.00
75821;DHT22;64454;51.984;9.838;2022-12-18T07:08:20;-4.60;1.00
75821;DHT22;64454;51.984;9.838;2022-12-18T07:10:48;-4.60;1.00
75821;DHT22;64454;51.984;9.838;2022-12-18T07:13:15;-4.60;1.00
75821;DHT22;64454;51.984;9.838;2022-12-18T07:15:42;-4.60;1.00
75821;DHT22;64454;51.984;9.838;2022-12-18T07:18:10;-4.60;1.00
75821;DHT22;64454;51.984;9.838;2022-12-18T07:20:37;-4.60;1.00
75821;DHT22;64454;51.984;9.838;2022-12-18T07:23:04;-4.60;1.00
75821;DHT22;64454;51.984;9.838;2022-12-18T07:25:33;-4.50;1.00
75821;DHT22;64454;51.984;9.838;2022-12-18T07:28:02;-4.50;1.00
75821;DHT22;64454;51.984;9.838;2022-12-18T07:30:29;-4.50;1.00
75821;DHT22;64454;51.984;9.838;2022-12-18T07:32:56;-4.40;1.00
75821;DHT22;64454;51.984;9.838;2022-12-18T07:35:23;-4.40;1.00
75821;DHT22;64454;51.984;9.838;2022-12-18T07:37:50;-4.40;1.00
75821;DHT22;64454;51.984;9.838;2022-12-18T07:40:17;-4.30;1.00
75821;DHT22;64454;51.984;9.838;2022-12-18T07:42:44;-4.30;1.00
75821;DHT22;64454;51.984;9.838;2022-12-18T07:45:13;-4.20;1.00
75821;DHT22;64454;51.984;9.838;2022-12-18T07:47:39;-4.20;1.00
75821;DHT22;64454;51.984;9.838;2022-12-18T07:50:07;-4.10;1.00
75821;DHT22;64454;51.984;9.838;2022-12-18T07:52:35;-4.10;1.00
75821;DHT22;64454;51.984;9.838;2022-12-18T07:55:02;-4.10;1.00
75821;DHT22;64454;51.984;9.838;2022-12-18T07:57:29;-4.10;1.00
75821;DHT22;64454;51.984;9.838;2022-12-18T07:59:56;-4.00;1.00
75821;DHT22;64454;51.984;9.838;2022-12-18T08:02:24;-4.00;1.00
75821;DHT22;64454;51.984;9.838;2022-12-18T08:04:51;-4.00;1.00
75821;DHT22;64454;51.984;9.838;2022-12-18T08:07:18;-4.10;1.00
75821;DHT22;64454;51.984;9.838;2022-12-18T08:09:45;-4.20;1.00
75821;DHT22;64454;51.984;9.838;2022-12-18T08:12:12;-4.10;1.00
75821;DHT22;64454;51.984;9.838;2022-12-18T08:14:39;-4.00;1.00
75821;DHT22;64454;51.984;9.838;2022-12-18T08:17:06;-3.80;1.00
75821;DHT22;64454;51.984;9.838;2022-12-18T08:19:34;-3.70;1.00
75821;DHT22;64454;51.984;9.838;2022-12-18T08:22:01;-3.60;1.00
75821;DHT22;64454;51.984;9.838;2022-12-18T08:24:28;-3.40;1.00
75821;DHT22;64454;51.984;9.838;2022-12-18T08:26:55;-3.10;1.00
75821;DHT22;64454;51.984;9.838;2022-12-18T08:29:22;-2.60;1.00
75821;DHT22;64454;51.984;9.838;2022-12-18T08:31:49;-1.80;1.00
75821;DHT22;64454;51.984;9.838;2022-12-18T08:34:16;-0.70;1.00
75821;DHT22;64454;51.984;9.838;2022-12-18T08:36:44;0.60;1.00
75821;DHT22;64454;51.984;9.838;2022-12-18T08:39:11;1.90;1.00
75821;DHT22;64454;51.984;9.838;2022-12-18T08:41:38;3.20;1.00
75821;DHT22;64454;51.984;9.838;2022-12-18T08:44:07;4.40;1.00
75821;DHT22;64454;51.984;9.838;2022-12-18T08:46:51;5.50;1.00
75821;DHT22;64454;51.984;9.838;2022-12-18T08:49:18;6.80;1.00
75821;DHT22;64454;51.984;9.838;2022-12-18T08:51:46;8.00;1.00
75821;DHT22;64454;51.984;9.838;2022-12-18T08:54:13;8.70;1.00
75821;DHT22;64454;51.984;9.838;2022-12-18T08:56:40;9.30;1.00
75821;DHT22;64454;51.984;9.838;2022-12-18T08:59:08;9.60;1.00
75821;DHT22;64454;51.984;9.838;2022-12-18T09:01:35;9.60;1.00
75821;DHT22;64454;51.984;9.838;2022-12-18T09:04:02;9.50;1.00
75821;DHT22;64454;51.984;9.838;2022-12-18T09:06:29;9.50;1.00
75821;DHT22;64454;51.984;9.838;2022-12-18T09:08:58;9.70;1.00
75821;DHT22;64454;51.984;9.838;2022-12-18T09:11:27;10.00;1.00
75821;DHT22;64454;51.984;9.838;2022-12-18T09:13:55;10.30;1.00
75821;DHT22;64454;51.984;9.838;2022-12-18T09:16:23;10.70;1.00
75821;DHT22;64454;51.984;9.838;2022-12-18T09:18:51;11.20;1.00
75821;DHT22;64454;51.984;9.838;2022-12-18T09:21:25;11.50;1.00
75821;DHT22;64454;51.984;9.838;2022-12-18T09:23:55;11.90;1.00
75821;DHT22;64454;51.984;9.838;2022-12-18T09:26:24;12.40;1.00
75821;DHT22;64454;51.984;9.838;2022-12-18T09:28:52;13.00;1.00
75821;DHT22;64454;51.984;9.838;2022-12-18T09:31:20;13.50;1.00
75821;DHT22;64454;51.984;9.838;2022-12-18T09:33:48;14.40;1.00
75821;DHT22;64454;51.984;9.838;2022-12-18T09:36:16;15.50;1.00
75821;DHT22;64454;51.984;9.838;2022-12-18T09:38:44;15.90;1.00
75821;DHT22;64454;51.984;9.838;2022-12-18T09:41:25;15.90;1.00
75821;DHT22;64454;51.984;9.838;2022-12-18T09:44:09;15.90;1.00
75821;DHT22;64454;51.984;9.838;2022-12-18T09:46:45;15.80;1.00
75821;DHT22;64454;51.984;9.838;2022-12-18T09:49:17;15.20;1.00
75821;DHT22;64454;51.984;9.838;2022-12-18T09:51:50;15.10;1.00
75821;DHT22;64454;51.984;9.838;2022-12-18T09:54:22;14.90;1.00
75821;DHT22;64454;51.984;9.838;2022-12-18T09:56:54;14.70;1.00
75821;DHT22;64454;51.984;9.838;2022-12-18T09:59:24;14.40;1.00
75821;DHT22;64454;51.984;9.838;2022-12-18T10:01:56;13.10;1.00
75821;DHT22;64454;51.984;9.838;2022-12-18T10:04:23;11.20;1.00
75821;DHT22;64454;51.984;9.838;2022-12-18T10:06:57;9.90;1.00
75821;DHT22;64454;51.984;9.838;2022-12-18T10:09:33;8.70;1.00
75821;DHT22;64454;51.984;9.838;2022-12-18T10:12:10;7.10;1.00
75821;DHT22;64454;51.984;9.838;2022-12-18T10:14:47;6.10;1.00
75821;DHT22;64454;51.984;9.838;2022-12-18T10:17:26;5.50;1.00
75821;DHT22;64454;51.984;9.838;2022-12-18T10:20:05;5.40;1.00
75821;DHT22;64454;51.984;9.838;2022-12-18T10:22:48;5.90;1.00
75821;DHT22;64454;51.984;9.838;2022-12-18T10:25:25;6.60;1.00
75821;DHT22;64454;51.984;9.838;2022-12-18T10:28:00;6.80;1.00
75821;DHT22;64454;51.984;9.838;2022-12-18T10:30:35;6.60;1.00
75821;DHT22;64454;51.984;9.838;2022-12-18T10:33:02;6.50;1.00
75821;DHT22;64454;51.984;9.838;2022-12-18T10:35:29;6.90;1.00
75821;DHT22;64454;51.984;9.838;2022-12-18T10:38:05;8.10;1.00
75821;DHT22;64454;51.984;9.838;2022-12-18T10:40:48;9.70;1.00
75821;DHT22;64454;51.984;9.838;2022-12-18T10:43:22;10.90;1.00
75821;DHT22;64454;51.984;9.838;2022-12-18T10:46:12;11.80;1.00
75821;DHT22;64454;51.984;9.838;2022-12-18T10:48:50;11.30;1.00
75821;DHT22;64454;51.984;9.838;2022-12-18T10:51:22;11.00;1.00
75821;DHT22;64454;51.984;9.838;2022-12-18T10:53:56;10.80;1.00
75821;DHT22;64454;51.984;9.838;2022-12-18T10:56:27;10.70;1.00
75821;DHT22;64454;51.984;9.838;2022-12-18T10:58:59;9.70;1.00
75821;DHT22;64454;51.984;9.838;2022-12-18T11:01:44;9.30;1.00
75821;DHT22;64454;51.984;9.838;2022-12-18T11:04:17;9.20;1.00
75821;DHT22;64454;51.984;9.838;2022-12-18T11:06:56;8.40;1.00
75821;DHT22;64454;51.984;9.838;2022-12-18T11:09:26;7.50;1.00
75821;DHT22;64454;51.984;9.838;2022-12-18T11:11:55;6.90;1.00
75821;DHT22;64454;51.984;9.838;2022-12-18T11:14:28;6.30;1.00
75821;DHT22;64454;51.984;9.838;2022-12-18T11:16:58;5.60;1.00
75821;DHT22;64454;51.984;9.838;2022-12-18T11:19:31;5.20;1.00
75821;DHT22;64454;51.984;9.838;2022-12-18T11:22:02;4.50;1.00
75821;DHT22;64454;51.984;9.838;2022-12-18T11:24:49;4.30;1.00
75821;DHT22;64454;51.984;9.838;2022-12-18T11:27:20;3.90;1.00
75821;DHT22;64454;51.984;9.838;2022-12-18T11:29:50;3.80;1.00
75821;DHT22;64454;51.984;9.838;2022-12-18T11:32:32;3.60;1.00
75821;DHT22;64454;51.984;9.838;2022-12-18T11:35:10;3.40;1.00
75821;DHT22;64454;51.984;9.838;2022-12-18T11:37:46;3.40;1.00
75821;DHT22;64454;51.984;9.838;2022-12-18T11:40:19;3.60;1.00
75821;DHT22;64454;51.984;9.838;2022-12-18T11:42:56;3.70;1.00
75821;DHT22;64454;51.984;9.838;2022-12-18T11:45:31;3.60;1.00
75821;DHT22;64454;51.984;9.838;2022-12-18T11:48:04;3.50;1.00
75821;DHT22;64454;51.984;9.838;2022-12-18T11:50:46;3.50;1.00
75821;DHT22;64454;51.984;9.838;2022-12-18T11:53:16;3.40;1.00
75821;DHT22;64454;51.984;9.838;2022-12-18T11:55:51;3.20;1.00
75821;DHT22;64454;51.984;9.838;2022-12-18T11:58:37;3.20;1.00
75821;DHT22;64454;51.984;9.838;2022-12-18T12:01:18;3.20;1.00
75821;DHT22;64454;51.984;9.838;2022-12-18T12:04:18;3.40;1.00
75821;DHT22;64454;51.984;9.838;2022-12-18T12:07:02;3.80;1.00
75821;DHT22;64454;51.984;9.838;2022-12-18T12:09:46;4.10;1.00
75821;DHT22;64454;51.984;9.838;2022-12-18T12:12:32;4.20;1.00
75821;DHT22;64454;51.984;9.838;2022-12-18T12:15:19;4.20;1.00
75821;DHT22;64454;51.984;9.838;2022-12-18T12:18:04;4.20;1.00
75821;DHT22;64454;51.984;9.838;2022-12-18T12:20:49;4.00;1.00
75821;DHT22;64454;51.984;9.838;2022-12-18T12:23:26;3.70;1.00
75821;DHT22;64454;51.984;9.838;2022-12-18T12:26:04;3.50;1.00
75821;DHT22;64454;51.984;9.838;2022-12-18T12:28:56;3.30;1.00
75821;DHT22;64454;51.984;9.838;2022-12-18T12:31:39;3.20;1.00
75821;DHT22;64454;51.984;9.838;2022-12-18T12:34:23;3.00;1.00
75821;DHT22;64454;51.984;9.838;2022-12-18T12:37:03;2.80;1.00
75821;DHT22;64454;51.984;9.838;2022-12-18T12:39:40;2.90;1.00
75821;DHT22;64454;51.984;9.838;2022-12-18T12:42:18;3.00;1.00
75821;DHT22;64454;51.984;9.838;2022-12-18T12:45:14;2.90;1.00
75821;DHT22;64454;51.984;9.838;2022-12-18T12:47:46;2.80;1.00
75821;DHT22;64454;51.984;9.838;2022-12-18T12:50:19;2.60;1.00
75821;DHT22;64454;51.984;9.838;2022-12-18T12:52:49;2.40;1.00
75821;DHT22;64454;51.984;9.838;2022-12-18T12:55:21;2.50;1.00
75821;DHT22;64454;51.984;9.838;2022-12-18T12:57:56;2.40;1.00
75821;DHT22;64454;51.984;9.838;2022-12-18T13:00:34;2.20;1.00
75821;DHT22;64454;51.984;9.838;2022-12-18T13:03:13;2.10;1.00
75821;DHT22;64454;51.984;9.838;2022-12-18T13:05:54;2.10;1.00
75821;DHT22;64454;51.984;9.838;2022-12-18T13:08:28;2.00;1.00
75821;DHT22;64454;51.984;9.838;2022-12-18T13:10:58;1.80;1.00
75821;DHT22;64454;51.984;9.838;2022-12-18T13:13:50;1.70;1.00
75821;DHT22;64454;51.984;9.838;2022-12-18T13:16:19;1.60;1.00
75821;DHT22;64454;51.984;9.838;2022-12-18T13:18:51;1.60;1.00
75821;DHT22;64454;51.984;9.838;2022-12-18T13:21:24;1.40;1.00
75821;DHT22;64454;51.984;9.838;2022-12-18T13:23:55;1.40;1.00
75821;DHT22;64454;51.984;9.838;2022-12-18T13:26:32;1.40;1.00
75821;DHT22;64454;51.984;9.838;2022-12-18T13:29:02;1.40;1.00
75821;DHT22;64454;51.984;9.838;2022-12-18T13:31:59;1.40;1.00
75821;DHT22;64454;51.984;9.838;2022-12-18T13:34:27;1.40;1.00
75821;DHT22;64454;51.984;9.838;2022-12-18T13:43:36;1.40;1.00
75821;DHT22;64454;51.984;9.838;2022-12-18T13:46:26;1.30;1.00
75821;DHT22;64454;51.984;9.838;2022-12-18T13:48:57;1.40;1.00
75821;DHT22;64454;51.984;9.838;2022-12-18T13:51:29;1.50;1.00
75821;DHT22;64454;51.984;9.838;2022-12-18T13:54:01;1.50;1.00
75821;DHT22;64454;51.984;9.838;2022-12-18T13:56:33;1.60;1.00
75821;DHT22;64454;51.984;9.838;2022-12-18T13:59:08;1.70;1.00
75821;DHT22;64454;51.984;9.838;2022-12-18T14:01:43;1.80;1.00
75821;DHT22;64454;51.984;9.838;2022-12-18T14:04:19;1.90;1.00
75821;DHT22;64454;51.984;9.838;2022-12-18T14:06:50;1.90;1.00
75821;DHT22;64454;51.984;9.838;2022-12-18T14:09:25;1.90;1.00
75821;DHT22;64454;51.984;9.838;2022-12-18T14:11:56;2.00;1.00
75821;DHT22;64454;51.984;9.838;2022-12-18T14:14:41;2.00;1.00
75821;DHT22;64454;51.984;9.838;2022-12-18T14:17:10;2.00;1.00
75821;DHT22;64454;51.984;9.838;2022-12-18T14:19:42;1.90;1.00
75821;DHT22;64454;51.984;9.838;2022-12-18T14:22:16;1.80;1.00
75821;DHT22;64454;51.984;9.838;2022-12-18T14:24:45;1.60;1.00
75821;DHT22;64454;51.984;9.838;2022-12-18T14:27:21;1.60;1.00
75821;DHT22;64454;51.984;9.838;2022-12-18T14:29:49;1.70;1.00
75821;DHT22;64454;51.984;9.838;2022-12-18T14:32:18;1.60;1.00
75821;DHT22;64454;51.984;9.838;2022-12-18T14:34:47;1.60;1.00
75821;DHT22;64454;51.984;9.838;2022-12-18T14:37:17;1.60;1.00
75821;DHT22;64454;51.984;9.838;2022-12-18T14:39:59;1.60;1.00
75821;DHT22;64454;51.984;9.838;2022-12-18T14:42:28;1.40;1.00
75821;DHT22;64454;51.984;9.838;2022-12-18T14:47:59;1.30;1.00
75821;DHT22;64454;51.984;9.838;2022-12-18T14:50:27;1.30;1.00
75821;DHT22;64454;51.984;9.838;2022-12-18T14:52:54;1.30;1.00
75821;DHT22;64454;51.984;9.838;2022-12-18T14:55:22;1.20;1.00
75821;DHT22;64454;51.984;9.838;2022-12-18T14:57:51;1.10;1.00
75821;DHT22;64454;51.984;9.838;2022-12-18T15:00:21;0.90;1.00
75821;DHT22;64454;51.984;9.838;2022-12-18T15:02:52;0.90;1.00
75821;DHT22;64454;51.984;9.838;2022-12-18T15:05:25;1.00;1.00
75821;DHT22;64454;51.984;9.838;2022-12-18T15:07:55;1.00;1.00
75821;DHT22;64454;51.984;9.838;2022-12-18T15:10:27;0.90;1.00
75821;DHT22;64454;51.984;9.838;2022-12-18T15:13:08;0.80;1.00
75821;DHT22;64454;51.984;9.838;2022-12-18T15:15:48;0.80;1.00
75821;DHT22;64454;51.984;9.838;2022-12-18T15:18:16;0.80;1.00
75821;DHT22;64454;51.984;9.838;2022-12-18T15:20:48;0.80;1.00
75821;DHT22;64454;51.984;9.838;2022-12-18T15:23:19;0.80;1.00
75821;DHT22;64454;51.984;9.838;2022-12-18T15:25:55;0.80;1.00
75821;DHT22;64454;51.984;9.838;2022-12-18T15:28:26;0.90;1.00
75821;DHT22;64454;51.984;9.838;2022-12-18T15:31:23;0.90;1.00
75821;DHT22;64454;51.984;9.838;2022-12-18T15:34:18;0.90;1.00
75821;DHT22;64454;51.984;9.838;2022-12-18T15:36:47;0.90;1.00
75821;DHT22;64454;51.984;9.838;2022-12-18T15:39:14;0.90;1.00
75821;DHT22;64454;51.984;9.838;2022-12-18T15:41:42;0.90;1.00
75821;DHT22;64454;51.984;9.838;2022-12-18T15:44:29;0.90;1.00
75821;DHT22;64454;51.984;9.838;2022-12-18T15:46:56;0.90;1.00
75821;DHT22;64454;51.984;9.838;2022-12-18T15:49:23;0.90;1.00
75821;DHT22;64454;51.984;9.838;2022-12-18T15:51:53;0.90;1.00
75821;DHT22;64454;51.984;9.838;2022-12-18T15:54:21;1.00;1.00
75821;DHT22;64454;51.984;9.838;2022-12-18T15:57:11;1.00;1.00
75821;DHT22;64454;51.984;9.838;2022-12-18T15:59:48;1.10;1.00
75821;DHT22;64454;51.984;9.838;2022-12-18T16:02:17;1.10;1.00
75821;DHT22;64454;51.984;9.838;2022-12-18T16:04:45;1.10;1.00
75821;DHT22;64454;51.984;9.838;2022-12-18T16:07:12;1.10;1.00
75821;DHT22;64454;51.984;9.838;2022-12-18T16:09:39;1.10;1.00
75821;DHT22;64454;51.984;9.838;2022-12-18T16:12:16;1.20;1.00
75821;DHT22;64454;51.984;9.838;2022-12-18T16:14:45;1.20;1.00
75821;DHT22;64454;51.984;9.838;2022-12-18T16:17:13;1.20;1.00
75821;DHT22;64454;51.984;9.838;2022-12-18T16:19:40;1.30;1.00
75821;DHT22;64454;51.984;9.838;2022-12-18T16:22:18;1.40;1.00
75821;DHT22;64454;51.984;9.838;2022-12-18T16:24:47;1.30;1.00
75821;DHT22;64454;51.984;9.838;2022-12-18T16:27:16;1.30;1.00
75821;DHT22;64454;51.984;9.838;2022-12-18T16:29:44;1.30;1.00
75821;DHT22;64454;51.984;9.838;2022-12-18T16:32:13;1.20;1.00